createdAt,value
2019-05-02T00:01:34.979Z,18.17
2019-05-02T00:04:05.533Z,15.23
2019-05-02T00:06:37.997Z,21.00
2019-05-02T00:09:11.125Z,20.53
2019-05-02T00:11:41.699Z,17.93
2019-05-02T00:14:11.825Z,18.50
2019-05-02T00:16:45.241Z,16.23
2019-05-02T00:19:14.305Z,17.83
2019-05-02T00:21:45.565Z,17.37
2019-05-02T00:24:15.886Z,21.43
2019-05-02T00:26:46.199Z,17.63
2019-05-02T00:29:18.940Z,19.23
2019-05-02T00:31:48.892Z,17.93
2019-05-02T00:34:19.767Z,22.03
2019-05-02T00:36:49.965Z,17.73
2019-05-02T00:39:20.609Z,21.93
2019-05-02T00:41:50.842Z,17.13
2019-05-02T00:44:20.807Z,20.63
2019-05-02T00:46:51.068Z,16.70
2019-05-02T00:49:21.187Z,19.60
2019-05-02T00:51:51.403Z,20.60
2019-05-02T00:54:24.335Z,21.47
2019-05-02T00:56:53.462Z,17.10
2019-05-02T00:59:23.680Z,16.57
2019-05-02T01:01:59.869Z,20.27
2019-05-02T01:04:28.995Z,15.23
2019-05-02T01:06:59.671Z,18.23
2019-05-02T01:09:29.791Z,19.43
2019-05-02T01:12:03.036Z,19.37
2019-05-02T01:14:33.259Z,19.33
2019-05-02T01:17:03.440Z,17.70
2019-05-02T01:19:33.693Z,16.77
2019-05-02T01:22:04.479Z,19.47
2019-05-02T01:24:39.957Z,15.30
2019-05-02T01:27:19.141Z,17.87
2019-05-02T01:30:05.923Z,19.10
2019-05-02T01:32:53.015Z,17.70
2019-05-02T01:35:26.999Z,16.67
2019-05-02T01:38:14.282Z,19.53
2019-05-02T01:40:48.054Z,17.60
2019-05-02T01:43:28.272Z,19.03
2019-05-02T01:45:58.560Z,19.37
2019-05-02T01:48:29.238Z,21.47
2019-05-02T01:50:59.617Z,23.17
2019-05-02T01:53:34.288Z,21.40
2019-05-02T01:56:02.020Z,18.73
2019-05-02T01:58:32.628Z,22.27
2019-05-02T02:01:03.009Z,21.63
2019-05-02T02:03:33.432Z,18.63
2019-05-02T02:06:07.944Z,17.93
2019-05-02T02:08:35.571Z,22.57
2019-05-02T02:11:05.833Z,21.60
2019-05-02T02:13:36.640Z,21.17
2019-05-02T02:16:07.577Z,20.50
2019-05-02T02:18:39.798Z,17.03
2019-05-02T02:21:11.599Z,18.47
2019-05-02T02:23:49.591Z,25.50
2019-05-02T02:26:20.255Z,21.20
2019-05-02T02:28:50.470Z,29.27
2019-05-02T02:31:21.800Z,25.03
2019-05-02T02:33:51.958Z,22.77
2019-05-02T02:36:31.668Z,24.13
2019-05-02T02:38:54.163Z,19.97
2019-05-02T02:41:24.520Z,23.00
2019-05-02T02:44:02.996Z,19.83
2019-05-02T02:46:37.985Z,23.30
2019-05-02T02:49:06.826Z,23.77
2019-05-02T02:51:36.963Z,28.77
2019-05-02T02:54:07.157Z,27.67
2019-05-02T02:56:40.547Z,27.80
2019-05-02T02:59:09.016Z,24.90
2019-05-02T03:01:39.225Z,29.10
2019-05-02T03:04:12.061Z,26.80
2019-05-02T03:06:44.821Z,27.67
2019-05-02T03:09:13.104Z,26.63
2019-05-02T03:11:47.706Z,24.63
2019-05-02T03:14:24.141Z,25.03
2019-05-02T03:16:54.620Z,28.47
2019-05-02T03:19:24.889Z,22.93
2019-05-02T03:22:01.014Z,27.23
2019-05-02T03:24:26.983Z,24.40
2019-05-02T03:26:58.507Z,21.27
2019-05-02T03:29:39.812Z,23.53
2019-05-02T03:32:13.340Z,27.00
2019-05-02T03:34:47.189Z,24.83
2019-05-02T03:37:10.557Z,24.37
2019-05-02T03:39:37.064Z,23.17
2019-05-02T03:42:07.421Z,22.60
2019-05-02T03:44:38.158Z,25.00
2019-05-02T03:47:09.003Z,24.73
2019-05-02T03:49:40.823Z,22.30
2019-05-02T03:52:11.033Z,22.40
2019-05-02T03:54:49.794Z,27.23
2019-05-02T03:57:14.283Z,21.97
2019-05-02T03:59:44.653Z,27.00
2019-05-02T04:02:20.395Z,27.87
2019-05-02T04:04:54.357Z,22.43
2019-05-02T04:07:20.968Z,21.40
2019-05-02T04:09:52.061Z,22.80
2019-05-02T04:12:22.718Z,24.87
2019-05-02T04:14:55.966Z,24.37
2019-05-02T04:17:28.727Z,24.27
2019-05-02T04:19:59.449Z,24.13
2019-05-02T04:22:30.109Z,20.03
2019-05-02T04:25:00.795Z,20.63
2019-05-02T04:27:34.176Z,13.73
2019-05-02T04:30:10.891Z,17.07
2019-05-02T04:32:34.964Z,16.47
2019-05-02T04:35:06.222Z,11.83
2019-05-02T04:37:41.115Z,16.70
2019-05-02T04:40:11.958Z,13.90
2019-05-02T04:42:41.295Z,16.50
2019-05-02T04:45:24.125Z,15.73
2019-05-02T04:47:57.583Z,15.43
2019-05-02T04:50:24.780Z,14.33
2019-05-02T04:52:52.500Z,17.30
2019-05-02T04:55:25.961Z,16.83
2019-05-02T04:57:51.208Z,15.03
2019-05-02T05:00:29.930Z,15.53
2019-05-02T05:03:00.549Z,19.60
2019-05-02T05:05:31.455Z,18.80
2019-05-02T05:08:01.661Z,20.13
2019-05-02T05:10:40.139Z,18.60
2019-05-02T05:13:04.795Z,15.50
2019-05-02T05:15:41.078Z,16.53
2019-05-02T05:18:12.611Z,10.93
2019-05-02T05:20:40.401Z,17.20
2019-05-02T05:23:15.596Z,16.53
2019-05-02T05:25:44.549Z,15.13
2019-05-02T05:28:14.664Z,11.70
2019-05-02T05:30:45.690Z,9.93
2019-05-02T05:33:18.334Z,15.13
2019-05-02T05:35:52.445Z,12.10
2019-05-02T05:38:22.989Z,16.80
2019-05-02T05:40:51.674Z,9.80
2019-05-02T05:43:21.697Z,10.13
2019-05-02T05:45:56.347Z,13.93
2019-05-02T05:48:23.853Z,18.10
2019-05-02T05:50:54.021Z,12.17
2019-05-02T05:53:24.549Z,11.83
2019-05-02T05:55:59.016Z,14.70
2019-05-02T05:58:28.409Z,7.93
2019-05-02T06:00:58.943Z,12.70
2019-05-02T06:03:29.303Z,12.63
2019-05-02T06:05:59.929Z,13.07
2019-05-02T06:08:30.143Z,12.53
2019-05-02T06:11:00.387Z,17.37
2019-05-02T06:13:30.586Z,20.13
2019-05-02T06:16:02.749Z,11.13
2019-05-02T06:18:36.335Z,10.90
2019-05-02T06:21:08.829Z,14.67
2019-05-02T06:23:41.214Z,15.23
2019-05-02T06:26:13.729Z,12.60
2019-05-02T06:28:41.775Z,11.57
2019-05-02T06:31:12.634Z,15.10
2019-05-02T06:33:43.268Z,13.57
2019-05-02T06:36:13.332Z,10.73
2019-05-02T06:38:43.363Z,12.27
2019-05-02T06:41:16.149Z,16.23
2019-05-02T06:43:46.501Z,13.10
2019-05-02T06:46:21.852Z,9.67
2019-05-02T06:48:52.245Z,11.17
2019-05-02T06:51:21.220Z,14.93
2019-05-02T06:53:51.550Z,10.10
2019-05-02T06:56:21.772Z,11.97
2019-05-02T06:58:51.893Z,10.93
2019-05-02T07:01:22.965Z,12.90
2019-05-02T07:03:53.200Z,13.47
2019-05-02T07:06:23.332Z,15.30
2019-05-02T07:08:53.803Z,12.27
2019-05-02T07:11:24.023Z,11.93
2019-05-02T07:13:54.140Z,9.43
2019-05-02T07:16:37.837Z,10.30
2019-05-02T07:18:59.588Z,10.20
2019-05-02T07:21:29.755Z,11.93
2019-05-02T07:23:59.964Z,13.07
2019-05-02T07:26:30.388Z,8.10
2019-05-02T07:29:00.842Z,10.73
2019-05-02T07:31:32.370Z,9.73
2019-05-02T07:34:02.621Z,14.80
2019-05-02T07:36:36.360Z,10.00
2019-05-02T07:39:06.773Z,9.53
2019-05-02T07:41:37.262Z,9.23
2019-05-02T07:44:07.866Z,12.20
2019-05-02T07:46:50.969Z,8.83
2019-05-02T07:49:10.273Z,8.67
2019-05-02T07:51:40.635Z,9.33
2019-05-02T07:54:10.634Z,8.13
2019-05-02T07:56:40.822Z,9.47
2019-05-02T07:59:11.255Z,9.80
2019-05-02T08:01:44.870Z,8.37
2019-05-02T08:04:13.689Z,10.03
2019-05-02T08:06:44.685Z,10.30
2019-05-02T08:09:15.323Z,8.63
2019-05-02T08:11:45.509Z,8.33
2019-05-02T08:14:15.549Z,9.97
2019-05-02T08:16:45.582Z,7.97
2019-05-02T08:19:15.678Z,8.67
2019-05-02T08:21:46.146Z,11.47
2019-05-02T08:24:16.497Z,8.90
2019-05-02T08:27:06.361Z,10.13
2019-05-02T08:29:37.867Z,7.67
2019-05-02T08:32:08.012Z,6.63
2019-05-02T08:34:38.004Z,8.10
2019-05-02T08:37:08.067Z,8.23
2019-05-02T08:39:38.378Z,8.27
2019-05-02T08:42:08.926Z,6.07
2019-05-02T08:44:50.253Z,7.00
2019-05-02T08:47:18.655Z,7.10
2019-05-02T08:49:42.715Z,6.87
2019-05-02T08:52:12.734Z,6.40
2019-05-02T08:54:42.717Z,5.37
2019-05-02T08:57:12.699Z,4.73
2019-05-02T08:59:42.675Z,5.37
2019-05-02T09:02:12.925Z,5.30
2019-05-02T09:04:42.907Z,4.83
2019-05-02T09:07:13.170Z,4.50
2019-05-02T09:09:43.443Z,5.90
2019-05-02T09:12:15.225Z,6.83
2019-05-02T09:14:46.004Z,6.57
2019-05-02T09:17:16.756Z,5.53
2019-05-02T09:19:59.389Z,6.20
2019-05-02T09:22:18.841Z,3.77
2019-05-02T09:24:49.071Z,7.83
2019-05-02T09:27:19.470Z,5.90
2019-05-02T09:29:51.850Z,4.87
2019-05-02T09:32:25.517Z,4.50
2019-05-02T09:34:56.579Z,5.07
2019-05-02T09:37:25.243Z,4.47
2019-05-02T09:39:55.530Z,5.13
2019-05-02T09:42:25.985Z,5.13
2019-05-02T09:44:57.063Z,4.97
2019-05-02T09:47:32.412Z,3.37
2019-05-02T09:50:07.626Z,4.87
2019-05-02T09:52:39.523Z,5.47
2019-05-02T09:55:12.309Z,4.40
2019-05-02T09:57:42.919Z,5.50
2019-05-02T10:00:31.286Z,3.83
2019-05-02T10:02:58.949Z,6.00
2019-05-02T10:05:29.381Z,5.20
2019-05-02T10:08:03.021Z,3.53
2019-05-02T10:10:32.423Z,5.23
2019-05-02T10:13:02.891Z,4.83
2019-05-02T10:15:33.453Z,6.23
2019-05-02T10:18:11.136Z,8.87
2019-05-02T10:20:37.711Z,5.40
2019-05-02T10:23:12.014Z,7.27
2019-05-02T10:25:44.519Z,9.80
2019-05-02T10:28:12.948Z,9.40
2019-05-02T10:30:47.433Z,5.77
2019-05-02T10:33:15.525Z,8.00
2019-05-02T10:35:47.415Z,7.77
2019-05-02T10:38:19.411Z,7.30
2019-05-02T10:40:54.559Z,5.73
2019-05-02T10:43:22.302Z,9.93
2019-05-02T10:45:56.492Z,8.90
2019-05-02T10:48:28.710Z,7.90
2019-05-02T10:51:16.468Z,8.20
2019-05-02T10:53:47.008Z,9.67
2019-05-02T10:56:18.815Z,9.87
2019-05-02T10:58:48.958Z,8.60
2019-05-02T11:01:21.862Z,11.77
2019-05-02T11:03:53.815Z,12.00
2019-05-02T11:06:24.144Z,10.73
2019-05-02T11:08:54.398Z,12.33
2019-05-02T11:11:25.067Z,15.50
2019-05-02T11:14:00.711Z,12.40
2019-05-02T11:16:42.887Z,16.83
2019-05-02T11:19:14.749Z,13.10
2019-05-02T11:21:55.415Z,21.50
2019-05-02T11:24:16.811Z,16.17
2019-05-02T11:26:47.132Z,14.73
2019-05-02T11:29:17.192Z,14.40
2019-05-02T11:31:47.443Z,15.83
2019-05-02T11:34:17.741Z,14.33
2019-05-02T11:36:48.027Z,16.77
2019-05-02T11:39:26.564Z,14.90
2019-05-02T11:41:50.123Z,16.60
2019-05-02T11:44:22.390Z,19.90
2019-05-02T11:46:52.618Z,17.60
2019-05-02T11:49:22.895Z,13.83
2019-05-02T11:51:57.065Z,19.40
2019-05-02T11:54:27.649Z,16.13
2019-05-02T11:56:56.685Z,14.87
2019-05-02T11:59:28.069Z,14.10
2019-05-02T12:02:17.571Z,13.27
2019-05-02T12:04:47.447Z,12.10
2019-05-02T12:07:16.459Z,13.27
2019-05-02T12:09:52.119Z,12.37
2019-05-02T12:12:18.648Z,16.87
2019-05-02T12:14:48.837Z,11.57
2019-05-02T12:17:18.928Z,12.43
2019-05-02T12:19:49.060Z,12.63
2019-05-02T12:22:19.309Z,12.70
2019-05-02T12:24:49.548Z,12.77
2019-05-02T12:27:21.901Z,13.50
2019-05-02T12:29:57.715Z,12.87
2019-05-02T12:32:23.468Z,14.20
2019-05-02T12:34:53.589Z,10.37
2019-05-02T12:37:23.927Z,14.00
2019-05-02T12:39:54.477Z,11.73
2019-05-02T12:42:25.108Z,11.30
2019-05-02T12:44:55.509Z,10.97
2019-05-02T12:47:25.825Z,7.87
2019-05-02T12:49:56.144Z,9.80
2019-05-02T12:52:26.355Z,10.10
2019-05-02T12:54:56.605Z,10.57
2019-05-02T12:57:26.952Z,8.70
2019-05-02T12:59:57.249Z,9.13
2019-05-02T13:02:28.993Z,9.70
2019-05-02T13:04:59.126Z,8.73
2019-05-02T13:07:31.644Z,8.20
2019-05-02T13:10:02.429Z,9.87
2019-05-02T13:12:37.027Z,7.80
2019-05-02T13:15:08.363Z,7.50
2019-05-02T13:17:43.956Z,4.87
2019-05-02T13:20:13.086Z,7.87
2019-05-02T13:22:52.650Z,6.50
2019-05-02T13:25:27.406Z,6.50
2019-05-02T13:27:56.679Z,6.07
2019-05-02T13:30:45.279Z,7.83
2019-05-02T13:33:07.936Z,6.03
2019-05-02T13:38:24.523Z,5.57
2019-05-02T13:40:55.225Z,5.97
2019-05-02T13:43:27.036Z,6.87
2019-05-02T13:45:58.836Z,4.03
2019-05-02T13:48:29.211Z,7.97
2019-05-02T13:51:00.860Z,4.43
2019-05-02T13:53:32.086Z,5.73
2019-05-02T13:56:10.021Z,6.07
2019-05-02T13:58:40.116Z,4.80
2019-05-02T14:01:11.739Z,2.97
2019-05-02T14:03:42.167Z,7.53
2019-05-02T14:06:12.449Z,4.70
2019-05-02T14:08:44.430Z,5.70
2019-05-02T14:11:32.758Z,3.90
2019-05-02T14:14:03.497Z,5.40
2019-05-02T14:16:33.722Z,4.00
2019-05-02T14:19:04.141Z,4.77
2019-05-02T14:21:34.396Z,4.70
2019-05-02T14:24:04.817Z,4.17
2019-05-02T14:26:34.827Z,5.10
2019-05-02T14:29:07.233Z,7.30
2019-05-02T14:31:38.713Z,7.00
2019-05-02T14:34:26.696Z,6.93
2019-05-02T14:36:59.353Z,8.47
2019-05-02T14:39:28.651Z,8.90
2019-05-02T14:41:58.882Z,6.63
2019-05-02T14:44:57.963Z,6.93
2019-05-02T14:47:02.197Z,8.90
2019-05-02T14:49:34.015Z,10.67
2019-05-02T14:52:07.000Z,9.60
2019-05-02T14:54:37.994Z,6.93
2019-05-02T14:57:09.463Z,7.97
2019-05-02T14:59:39.562Z,7.60
2019-05-02T15:02:13.104Z,7.07
2019-05-02T15:04:48.377Z,9.57
2019-05-02T15:07:17.711Z,7.27
2019-05-02T15:09:46.570Z,9.50
2019-05-02T15:12:19.056Z,8.17
2019-05-02T15:14:49.717Z,11.03
2019-05-02T15:17:20.455Z,13.17
2019-05-02T15:19:52.531Z,11.37
2019-05-02T15:22:22.835Z,7.17
2019-05-02T15:24:56.477Z,9.73
2019-05-02T15:27:39.101Z,10.27
2019-05-02T15:30:01.903Z,8.73
2019-05-02T15:32:32.446Z,8.43
2019-05-02T15:35:17.743Z,7.77
2019-05-02T15:37:48.452Z,7.40
2019-05-02T15:40:43.491Z,7.73
2019-05-02T15:42:52.106Z,11.07
2019-05-02T15:45:23.797Z,9.47
2019-05-02T15:47:54.216Z,11.77
2019-05-02T15:50:25.773Z,8.23
2019-05-02T15:53:03.179Z,7.50
2019-05-02T15:55:32.420Z,7.27
2019-05-02T15:58:02.428Z,9.80
2019-05-02T16:00:35.113Z,10.97
2019-05-02T16:03:05.509Z,9.80
2019-05-02T16:05:36.590Z,11.13
2019-05-02T16:08:08.905Z,11.63
2019-05-02T16:10:40.086Z,10.13
2019-05-02T16:13:13.484Z,9.77
2019-05-02T16:15:43.971Z,14.87
2019-05-02T16:18:14.577Z,11.13
2019-05-02T16:21:04.498Z,13.80
2019-05-02T16:23:31.839Z,9.80
2019-05-02T16:26:02.115Z,12.33
2019-05-02T16:28:30.130Z,13.10
2019-05-02T16:31:02.127Z,10.47
2019-05-02T16:33:32.505Z,10.87
2019-05-02T16:36:02.950Z,10.87
2019-05-02T16:38:35.005Z,10.70
2019-05-02T16:41:09.990Z,8.03
2019-05-02T16:43:37.228Z,8.77
2019-05-02T16:46:11.884Z,7.20
2019-05-02T16:48:39.467Z,10.60
2019-05-02T16:51:27.707Z,7.53
2019-05-02T16:53:42.707Z,13.60
2019-05-02T16:56:13.103Z,10.07
2019-05-02T16:58:47.218Z,6.63
2019-05-02T17:01:26.632Z,8.00
2019-05-02T17:03:50.098Z,8.23
2019-05-02T17:06:22.379Z,6.07
2019-05-02T17:08:58.731Z,10.20
2019-05-02T17:11:37.155Z,9.47
2019-05-02T17:14:11.845Z,8.63
2019-05-02T17:16:39.057Z,8.10
2019-05-02T17:19:09.905Z,8.53
2019-05-02T17:21:52.968Z,9.70
2019-05-02T17:24:12.673Z,8.53
2019-05-02T17:26:43.504Z,7.13
2019-05-02T17:29:16.524Z,7.03
2019-05-02T17:31:50.039Z,12.33
2019-05-02T17:34:23.048Z,7.27
2019-05-02T17:36:51.821Z,9.47
2019-05-02T17:39:22.293Z,7.83
2019-05-02T17:41:52.813Z,10.80
2019-05-02T17:44:24.632Z,12.63
2019-05-02T17:46:58.079Z,10.43
2019-05-02T17:49:31.859Z,9.60
2019-05-02T17:52:11.309Z,7.17
2019-05-02T17:54:42.337Z,9.67
2019-05-02T17:57:12.788Z,12.80
2019-05-02T17:59:42.981Z,10.40
2019-05-02T18:02:15.859Z,12.00
2019-05-02T18:04:46.536Z,9.07
2019-05-02T18:07:18.136Z,9.83
2019-05-02T18:09:48.465Z,8.47
2019-05-02T18:12:18.594Z,8.23
2019-05-02T18:14:53.059Z,10.27
2019-05-02T18:17:21.919Z,9.53
2019-05-02T18:19:52.161Z,7.53
2019-05-02T18:22:24.160Z,8.87
2019-05-02T18:24:54.616Z,10.67
2019-05-02T18:27:24.996Z,9.80
2019-05-02T18:29:55.135Z,11.13
2019-05-02T18:32:26.215Z,5.67
2019-05-02T18:34:56.899Z,8.67
2019-05-02T18:37:28.346Z,5.67
2019-05-02T18:39:58.764Z,7.93
2019-05-02T18:42:29.076Z,6.27
2019-05-02T18:44:59.466Z,6.80
2019-05-02T18:47:29.474Z,14.73
2019-05-02T18:50:02.025Z,12.57
2019-05-02T18:52:38.438Z,7.23
2019-05-02T18:55:05.724Z,9.47
2019-05-02T18:57:34.973Z,11.00
2019-05-02T19:00:07.047Z,8.83
2019-05-02T19:02:38.013Z,11.30
2019-05-02T19:05:11.605Z,9.03
2019-05-02T19:07:40.341Z,9.30
2019-05-02T19:10:12.030Z,11.83
2019-05-02T19:12:42.416Z,8.63
2019-05-02T19:15:12.792Z,13.07
2019-05-02T19:17:43.311Z,20.13
2019-05-02T19:20:32.541Z,12.30
2019-05-02T19:23:02.944Z,15.43
2019-05-02T19:25:33.264Z,9.87
2019-05-02T19:28:12.226Z,9.87
2019-05-02T19:30:43.361Z,8.47
2019-05-02T19:33:13.633Z,10.80
2019-05-02T19:35:46.950Z,12.13
2019-05-02T19:38:17.159Z,12.83
2019-05-02T19:40:47.090Z,8.60
2019-05-02T19:43:17.448Z,11.90
2019-05-02T19:45:51.244Z,8.60
2019-05-02T19:48:19.564Z,12.27
2019-05-02T19:50:51.698Z,15.17
2019-05-02T19:53:22.813Z,10.17
2019-05-02T19:55:57.195Z,6.47
2019-05-02T19:58:26.560Z,10.23
2019-05-02T20:00:57.384Z,12.73
2019-05-02T20:03:28.055Z,11.50
2019-05-02T20:06:02.446Z,11.37
2019-05-02T20:08:32.653Z,11.67
2019-05-02T20:11:03.524Z,7.80
2019-05-02T20:13:33.691Z,10.30
2019-05-02T20:16:11.703Z,11.03
2019-05-02T20:18:46.610Z,16.17
2019-05-02T20:21:28.021Z,10.50
2019-05-02T20:23:58.228Z,14.40
2019-05-02T20:26:28.448Z,9.60
2019-05-02T20:28:58.572Z,9.77
2019-05-02T20:31:29.348Z,11.33
2019-05-02T20:33:59.804Z,10.73
2019-05-02T20:36:31.984Z,17.53
2019-05-02T20:39:02.312Z,16.33
2019-05-02T20:41:32.775Z,11.27
2019-05-02T20:44:02.986Z,9.57
2019-05-02T20:46:34.585Z,15.17
2019-05-02T20:49:04.664Z,10.30
2019-05-02T20:51:34.815Z,10.37
2019-05-02T20:54:05.578Z,12.47
2019-05-02T20:56:36.166Z,8.03
2019-05-02T20:59:06.331Z,16.00
2019-05-02T21:01:36.602Z,11.67
2019-05-02T21:04:06.725Z,12.97
2019-05-02T21:06:44.354Z,15.80
2019-05-02T21:09:18.883Z,10.10
2019-05-02T21:11:52.378Z,9.67
2019-05-02T21:14:22.597Z,15.50
2019-05-02T21:16:52.929Z,10.60
2019-05-02T21:19:23.621Z,12.50
2019-05-02T21:21:54.877Z,13.67
2019-05-02T21:24:25.338Z,13.30
2019-05-02T21:26:55.561Z,16.23
2019-05-02T21:29:26.189Z,9.17
2019-05-02T21:31:56.794Z,14.53
2019-05-02T21:34:27.298Z,12.17
2019-05-02T21:36:57.583Z,12.90
2019-05-02T21:39:27.864Z,16.03
2019-05-02T21:41:58.333Z,14.60
2019-05-02T21:44:28.440Z,10.00
2019-05-02T21:46:58.656Z,11.53
2019-05-02T21:49:42.979Z,14.50
2019-05-02T21:52:14.875Z,8.10
2019-05-02T21:55:02.913Z,9.47
2019-05-02T21:57:33.447Z,12.43
2019-05-02T22:00:05.202Z,6.73
2019-05-02T22:02:35.521Z,14.43
2019-05-02T22:05:07.664Z,12.60
2019-05-02T22:07:37.845Z,14.00
2019-05-02T22:10:08.557Z,12.13
2019-05-02T22:12:38.717Z,22.03
2019-05-02T22:15:12.633Z,8.77
2019-05-02T22:17:42.456Z,20.57
2019-05-02T22:20:12.494Z,14.57
2019-05-02T22:22:42.785Z,17.83
2019-05-02T22:25:13.103Z,11.87
2019-05-02T22:27:43.592Z,11.90
2019-05-02T22:30:14.091Z,14.93
2019-05-02T22:32:44.249Z,11.40
2019-05-02T22:35:14.510Z,6.80
2019-05-02T22:37:47.024Z,14.70
2019-05-02T22:40:17.795Z,15.80
2019-05-02T22:42:47.889Z,10.23
2019-05-02T22:45:18.052Z,13.33
2019-05-02T22:47:48.356Z,13.20
2019-05-02T22:50:18.914Z,12.13
2019-05-02T22:52:49.137Z,11.93
2019-05-02T22:55:19.173Z,13.00
2019-05-02T22:57:49.370Z,15.53
2019-05-02T23:00:21.589Z,14.43
2019-05-02T23:02:52.593Z,13.17
2019-05-02T23:05:22.887Z,12.60
2019-05-02T23:07:53.718Z,12.13
2019-05-02T23:10:42.385Z,14.10
2019-05-02T23:13:12.954Z,11.30
2019-05-02T23:15:43.188Z,14.97
2019-05-02T23:18:13.297Z,16.23
2019-05-02T23:20:43.365Z,14.13
2019-05-02T23:23:13.490Z,13.23
2019-05-02T23:26:01.869Z,15.00
2019-05-02T23:28:33.702Z,17.43
2019-05-02T23:31:04.040Z,13.43
2019-05-02T23:33:52.263Z,11.47
2019-05-02T23:36:22.804Z,18.20
2019-05-02T23:38:52.956Z,11.47
2019-05-02T23:41:23.541Z,14.20
2019-05-02T23:43:53.775Z,10.23
2019-05-02T23:46:23.863Z,14.77
2019-05-02T23:48:53.912Z,18.23
2019-05-02T23:51:23.957Z,12.53
2019-05-02T23:53:55.509Z,15.27
2019-05-02T23:56:25.885Z,11.83
2019-05-02T23:58:56.122Z,17.37
